createdAt,value
2022-12-18T00:02:38.273Z,63.39
2022-12-18T00:06:00.042Z,62.59
2022-12-18T00:09:04.753Z,62.75
2022-12-18T00:15:20.446Z,62.90
2022-12-18T00:18:24.874Z,62.95
2022-12-18T00:21:31.666Z,63.12
2022-12-18T00:24:35.650Z,63.11
2022-12-18T00:27:42.400Z,62.40
2022-12-18T00:34:06.048Z,63.09
2022-12-18T00:37:20.249Z,62.71
2022-12-18T00:40:28.831Z,62.70
2022-12-18T00:50:08.148Z,63.65
2022-12-18T00:53:13.519Z,62.34
2022-12-18T00:59:33.180Z,62.36
2022-12-18T01:02:41.637Z,63.12
2022-12-18T01:05:47.790Z,62.87
2022-12-18T01:12:09.138Z,62.37
2022-12-18T01:15:15.263Z,62.10
2022-12-18T01:18:20.749Z,61.59
2022-12-18T01:21:26.855Z,61.66
2022-12-18T01:24:32.128Z,61.64
2022-12-18T01:30:58.104Z,61.00
2022-12-18T01:34:14.421Z,61.28
2022-12-18T01:40:39.709Z,61.28
2022-12-18T01:47:11.808Z,61.80
2022-12-18T01:50:25.877Z,61.92
2022-12-18T01:56:55.555Z,61.03
2022-12-18T02:00:03.361Z,61.54
2022-12-18T02:10:16.332Z,61.89
2022-12-18T02:13:38.938Z,61.28
2022-12-18T02:20:31.761Z,60.44
2022-12-18T02:30:39.291Z,60.01
2022-12-18T02:33:52.241Z,60.33
2022-12-18T02:47:45.350Z,60.00
2022-12-18T02:55:09.814Z,60.10
2022-12-18T02:58:42.064Z,59.90
2022-12-18T03:02:37.839Z,59.82
2022-12-18T03:09:25.173Z,60.11
2022-12-18T03:16:48.688Z,59.50
2022-12-18T03:23:45.521Z,58.70
2022-12-18T03:27:12.565Z,57.73
2022-12-18T03:34:05.046Z,58.38
2022-12-18T03:37:17.191Z,57.14
2022-12-18T04:14:17.863Z,57.07
2022-12-18T04:34:57.930Z,56.81
2022-12-18T04:38:13.245Z,56.71
2022-12-18T04:41:18.975Z,56.94
2022-12-18T04:44:31.110Z,57.13
2022-12-18T04:51:00.625Z,57.09
2022-12-18T05:04:14.718Z,56.41
2022-12-18T05:07:20.402Z,56.55
2022-12-18T05:10:38.251Z,56.44
2022-12-18T05:13:46.344Z,56.55
2022-12-18T05:17:00.881Z,56.24
2022-12-18T05:27:04.225Z,57.05
2022-12-18T05:43:40.661Z,57.37
2022-12-18T06:13:15.441Z,58.05
2022-12-18T06:16:20.132Z,57.36
2022-12-18T06:46:41.440Z,56.92
2022-12-18T06:56:39.112Z,58.18
2022-12-18T06:59:48.987Z,57.59
2022-12-18T07:02:53.457Z,58.55
2022-12-18T07:05:59.672Z,57.56
2022-12-18T07:09:09.953Z,57.60
2022-12-18T07:12:15.690Z,57.63
2022-12-18T07:18:40.901Z,58.36
2022-12-18T07:25:18.491Z,58.19
2022-12-18T07:28:30.522Z,58.06
2022-12-18T07:31:39.031Z,58.27
2022-12-18T08:06:18.336Z,60.67
2022-12-18T08:09:26.085Z,61.43
2022-12-18T08:12:45.226Z,62.30
2022-12-18T08:15:56.247Z,62.26
2022-12-18T08:19:04.582Z,62.50
2022-12-18T08:22:12.717Z,61.82
2022-12-18T08:28:42.901Z,62.77
2022-12-18T08:31:53.670Z,63.12
2022-12-18T08:45:02.349Z,63.26
2022-12-18T08:48:11.851Z,63.30
2022-12-18T09:02:23.383Z,64.83
2022-12-18T09:05:38.107Z,64.25
2022-12-18T09:08:42.920Z,64.41
2022-12-18T09:39:37.448Z,65.34
2022-12-18T09:46:07.980Z,65.56
2022-12-18T09:49:28.775Z,65.16
2022-12-18T09:52:52.374Z,65.33
2022-12-18T09:59:41.157Z,65.75
2022-12-18T10:06:28.050Z,65.95
2022-12-18T10:14:15.738Z,64.56
2022-12-18T10:17:54.140Z,64.41
2022-12-18T10:21:08.497Z,64.95
2022-12-18T10:27:58.952Z,64.70
2022-12-18T10:31:26.884Z,65.20
2022-12-18T10:34:40.601Z,65.58
2022-12-18T10:38:04.993Z,65.38
2022-12-18T10:44:47.622Z,64.95
2022-12-18T10:47:53.682Z,64.87
2022-12-18T10:51:12.713Z,64.62
2022-12-18T10:57:45.918Z,64.92
2022-12-18T11:18:53.501Z,64.44
2022-12-18T11:44:02.983Z,64.79
2022-12-18T11:47:44.426Z,65.64
2022-12-18T11:51:09.557Z,66.47
2022-12-18T11:57:59.079Z,67.06
2022-12-18T12:01:27.970Z,65.64
2022-12-18T12:04:38.501Z,65.09
2022-12-18T12:07:55.718Z,65.72
2022-12-18T12:11:07.851Z,65.74
2022-12-18T12:14:23.269Z,65.94
2022-12-18T12:18:01.060Z,65.15
2022-12-18T12:21:23.409Z,64.97
2022-12-18T12:28:40.205Z,65.32
2022-12-18T12:32:05.929Z,65.20
2022-12-18T12:35:50.930Z,64.71
2022-12-18T12:39:16.930Z,64.52
2022-12-18T12:43:06.191Z,64.22
2022-12-18T12:46:20.887Z,64.42
2022-12-18T12:49:35.190Z,64.55
2022-12-18T12:53:14.746Z,64.27
2022-12-18T12:56:25.836Z,63.91
2022-12-18T12:59:34.947Z,64.95
2022-12-18T13:06:44.720Z,64.31
2022-12-18T13:10:17.247Z,64.52
2022-12-18T13:13:24.404Z,63.86
2022-12-18T13:16:41.304Z,64.21
2022-12-18T13:19:51.383Z,64.35
2022-12-18T13:26:40.355Z,64.62
2022-12-18T13:30:05.955Z,65.12
2022-12-18T13:33:19.163Z,65.20
2022-12-18T13:36:34.267Z,65.16
2022-12-18T13:39:43.868Z,64.81
2022-12-18T13:43:11.980Z,64.86
2022-12-18T13:46:40.003Z,64.03
2022-12-18T13:53:19.246Z,64.20
2022-12-18T13:56:33.971Z,63.30
2022-12-18T13:59:45.547Z,63.21
2022-12-18T14:02:50.214Z,63.60
2022-12-18T14:06:09.929Z,63.06
2022-12-18T14:13:02.466Z,62.52
2022-12-18T14:16:11.588Z,62.80
2022-12-18T14:22:43.342Z,63.59
2022-12-18T14:25:57.767Z,64.86
2022-12-18T14:29:29.853Z,64.22
2022-12-18T14:39:21.539Z,63.78
2022-12-18T14:42:33.770Z,63.30
2022-12-18T14:45:45.465Z,62.20
2022-12-18T14:48:51.540Z,60.63
2022-12-18T14:52:08.579Z,61.00
2022-12-18T14:55:20.572Z,61.44
2022-12-18T15:02:12.383Z,59.90
2022-12-18T15:05:17.810Z,60.54
2022-12-18T15:15:41.744Z,60.57
2022-12-18T15:18:48.207Z,60.46
2022-12-18T15:21:55.352Z,61.10
2022-12-18T15:25:02.769Z,61.68
2022-12-18T15:28:24.423Z,61.59
2022-12-18T15:31:32.357Z,60.36
2022-12-18T15:34:45.145Z,60.65
2022-12-18T15:37:50.309Z,62.08
2022-12-18T15:40:59.152Z,60.89
2022-12-18T15:44:11.048Z,60.82
2022-12-18T15:47:25.155Z,60.46
2022-12-18T15:50:29.090Z,59.03
2022-12-18T15:53:37.487Z,58.59
2022-12-18T15:57:01.452Z,59.39
2022-12-18T16:00:12.736Z,59.44
2022-12-18T16:03:16.429Z,59.60
2022-12-18T16:06:20.121Z,59.57
2022-12-18T16:09:29.242Z,60.03
2022-12-18T16:12:33.671Z,60.41
2022-12-18T16:15:37.715Z,60.76
2022-12-18T16:18:44.576Z,60.88
2022-12-18T16:21:49.556Z,61.12
2022-12-18T16:24:55.565Z,60.97
2022-12-18T16:28:03.481Z,60.64
2022-12-18T16:31:07.087Z,60.62
2022-12-18T16:34:34.877Z,60.51
2022-12-18T16:37:40.211Z,60.53
2022-12-18T16:41:05.592Z,60.85
2022-12-18T16:44:11.752Z,60.55
2022-12-18T16:47:17.848Z,60.83
2022-12-18T16:50:22.480Z,60.83
2022-12-18T16:53:27.241Z,61.01
2022-12-18T16:56:34.239Z,61.06
2022-12-18T16:59:38.122Z,60.91
2022-12-18T17:02:46.254Z,60.71
2022-12-18T17:05:53.489Z,60.58
2022-12-18T17:09:02.221Z,60.29
2022-12-18T17:12:10.203Z,60.78
2022-12-18T17:15:13.755Z,61.17
2022-12-18T17:18:19.528Z,61.44
2022-12-18T17:21:25.738Z,61.64
2022-12-18T17:24:34.526Z,61.37
2022-12-18T17:27:39.455Z,61.51
2022-12-18T17:30:45.500Z,61.75
2022-12-18T17:33:50.686Z,61.74
2022-12-18T17:36:55.719Z,61.64
2022-12-18T17:40:00.143Z,60.86
2022-12-18T17:43:05.759Z,60.50
2022-12-18T17:46:11.278Z,60.40
2022-12-18T17:49:20.907Z,60.42
2022-12-18T17:52:29.359Z,60.15
2022-12-18T17:55:35.860Z,60.29
2022-12-18T17:58:39.826Z,60.76
2022-12-18T18:01:45.899Z,60.65
2022-12-18T18:04:50.614Z,60.69
2022-12-18T18:07:55.569Z,60.35
2022-12-18T18:11:22.970Z,60.37
2022-12-18T18:14:28.905Z,59.99
2022-12-18T18:17:33.605Z,60.71
2022-12-18T18:20:42.340Z,60.68
2022-12-18T18:23:47.406Z,60.68
2022-12-18T18:26:52.846Z,59.95
2022-12-18T18:29:58.895Z,59.98
2022-12-18T18:33:05.513Z,60.39
2022-12-18T18:36:13.756Z,61.86
2022-12-18T18:39:17.546Z,62.52
2022-12-18T18:42:24.970Z,62.64
2022-12-18T18:45:31.628Z,62.95
2022-12-18T18:48:38.258Z,62.26
2022-12-18T18:51:43.397Z,62.76
2022-12-18T18:55:12.723Z,62.85
2022-12-18T18:58:18.027Z,62.77
2022-12-18T19:01:26.912Z,62.44
2022-12-18T19:04:34.044Z,62.00
2022-12-18T19:07:37.895Z,62.41
2022-12-18T19:10:52.026Z,61.09
2022-12-18T19:14:01.642Z,59.99
2022-12-18T19:17:06.845Z,59.33
2022-12-18T19:23:31.857Z,58.44
2022-12-18T19:26:37.188Z,58.86
2022-12-18T19:29:40.656Z,59.33
2022-12-18T19:32:45.543Z,59.64
2022-12-18T19:35:50.801Z,59.85
2022-12-18T19:38:58.100Z,59.90
2022-12-18T19:42:02.918Z,60.41
2022-12-18T19:45:07.058Z,60.30
2022-12-18T19:48:11.820Z,60.21
2022-12-18T19:51:22.277Z,60.00
2022-12-18T19:54:29.045Z,59.77
2022-12-18T19:57:33.269Z,60.13
2022-12-18T20:00:41.312Z,60.58
2022-12-18T20:03:52.538Z,60.62
2022-12-18T20:07:01.734Z,60.55
2022-12-18T20:10:09.275Z,60.65
2022-12-18T20:13:14.068Z,60.49
2022-12-18T20:16:27.590Z,60.45
2022-12-18T20:19:31.532Z,60.40
2022-12-18T20:22:37.631Z,60.20
2022-12-18T20:25:49.637Z,60.40
2022-12-18T20:28:55.076Z,60.22
2022-12-18T20:32:05.583Z,60.44
2022-12-18T20:35:16.999Z,60.15
2022-12-18T20:38:22.952Z,60.53
2022-12-18T20:41:38.135Z,60.41
2022-12-18T20:44:42.648Z,60.25
2022-12-18T20:47:46.235Z,59.64
2022-12-18T20:50:59.659Z,59.64
2022-12-18T20:54:12.021Z,59.37
2022-12-18T20:57:15.865Z,59.31
2022-12-18T21:00:21.348Z,59.08
2022-12-18T21:03:24.745Z,59.17
2022-12-18T21:06:29.394Z,59.39
2022-12-18T21:09:38.479Z,59.60
2022-12-18T21:12:51.133Z,59.58
2022-12-18T21:16:05.425Z,59.40
2022-12-18T21:19:14.097Z,59.38
2022-12-18T21:22:19.237Z,59.30
2022-12-18T21:25:27.307Z,59.37
2022-12-18T21:28:33.295Z,59.14
2022-12-18T21:31:40.855Z,59.21
2022-12-18T21:34:48.180Z,59.49
2022-12-18T21:38:01.785Z,59.55
2022-12-18T21:41:09.574Z,59.79
2022-12-18T21:44:17.041Z,59.48
2022-12-18T21:47:23.471Z,59.41
2022-12-18T21:50:27.662Z,59.61
2022-12-18T21:53:32.704Z,59.42
2022-12-18T22:00:18.985Z,59.68
2022-12-18T22:06:44.282Z,60.55
2022-12-18T22:09:48.964Z,60.68
2022-12-18T22:12:56.427Z,60.89
2022-12-18T22:15:59.803Z,60.63
2022-12-18T22:19:04.571Z,60.72
2022-12-18T22:22:09.389Z,60.64
2022-12-18T22:25:14.599Z,60.87
2022-12-18T22:28:37.071Z,61.27
2022-12-18T22:31:41.976Z,61.32
2022-12-18T22:35:06.837Z,61.56
2022-12-18T22:38:16.210Z,61.16
2022-12-18T22:41:28.496Z,61.45
2022-12-18T22:44:39.140Z,61.48
2022-12-18T22:51:02.462Z,61.30
2022-12-18T22:57:24.276Z,63.12
2022-12-18T23:00:31.998Z,63.08
2022-12-18T23:03:36.465Z,62.72
2022-12-18T23:10:09.039Z,62.71
2022-12-18T23:19:49.171Z,61.67
2022-12-18T23:22:54.547Z,62.07
2022-12-18T23:26:15.274Z,62.29
2022-12-18T23:29:22.238Z,62.27
2022-12-18T23:42:27.622Z,61.53
2022-12-18T23:49:17.269Z,61.68
2022-12-18T23:52:29.064Z,61.59
2022-12-18T23:55:33.076Z,61.19
2022-12-18T23:58:39.333Z,62.14
